Time;durP1;ratioP1;P1;durP2;ratioP2;P2;SDS_P1;SDS_P2;PMS_P1;PMS_P2;Temp;Humidity;BMP_temperature;BMP_pressure;BME280_temperature;BME280_humidity;BME280_pressure;Samples;Min_cycle;Max_cycle;Signal;HPM_P1;HPM_P2
2021/10/27 05:37:41;;;;;;;;;;;13.20;99.90;;;;;;5075773;27;20249;-72
2021/10/27 05:40:07;;;;;;;;;;;13.10;99.90;;;;;;5055538;28;19919;-73
2021/10/27 05:42:33;;;;;;;;;;;13.10;99.90;;;;;;5054256;28;19994;-72
2021/10/27 05:45:02;;;;;;;;;;;13.10;99.90;;;;;;5055701;28;19912;-72
2021/10/27 05:47:28;;;;;;;;;;;13.10;99.90;;;;;;5051562;28;19913;-72
2021/10/27 05:49:57;;;;;;;;;;;13.10;99.90;;;;;;5054860;28;19917;-72
2021/10/27 05:57:39;;;;;;;;;;;;;;;;;;5050534;28;19916;-73
2021/10/27 06:00:08;;;;;;;;;;;13.20;99.90;;;;;;5052218;28;19920;-72
2021/10/27 06:02:34;;;;;;;;;;;13.10;99.90;;;;;;5049532;28;19955;-72
2021/10/27 06:05:00;;;;;;;;;;;;;;;;;;5057914;28;19952;-72
2021/10/27 06:07:25;;;;;;;;;;;13.20;99.90;;;;;;5057843;28;20031;-72
2021/10/27 06:09:53;;;;;;;;;;;13.20;99.90;;;;;;5058762;28;19919;-72
2021/10/27 06:12:19;;;;;;;;;;;13.30;99.90;;;;;;5056845;28;21338;-72
2021/10/27 06:14:45;;;;;;;;;;;13.20;99.90;;;;;;5059816;28;19912;-72
2021/10/27 06:17:11;;;;;;;;;;;13.10;99.90;;;;;;5057376;28;21135;-73
2021/10/27 06:19:36;;;;;;;;;;;13.10;99.90;;;;;;5059887;28;19959;-72
2021/10/27 06:22:02;;;;;;;;;;;13.10;99.90;;;;;;5045051;28;19956;-72
2021/10/27 06:24:29;;;;;;;;;;;13.10;99.90;;;;;;5059209;28;19913;-72
2021/10/27 06:26:55;;;;;;;;;;;13.20;99.90;;;;;;5052403;28;19913;-74
2021/10/27 06:30:05;;;;;;;;;;;13.20;99.90;;;;;;5056056;28;19974;-72
2021/10/27 06:34:42;;;;;;;;;;;13.10;99.90;;;;;;5062023;28;19944;-74
2021/10/27 06:37:18;;;;;;;;;;;13.10;99.90;;;;;;5072455;28;19931;-74
2021/10/27 06:48:01;;;;;;;;;;;13.20;99.90;;;;;;5071553;28;20291;-74
2021/10/27 06:50:27;;;;;;;;;;;13.10;99.90;;;;;;5062058;28;19913;-74
2021/10/27 06:52:53;;;;;;;;;;;13.20;99.90;;;;;;5064705;28;19916;-74
2021/10/27 06:55:19;;;;;;;;;;;13.20;99.90;;;;;;5067151;28;20067;-73
2021/10/27 06:57:44;;;;;;;;;;;13.20;99.90;;;;;;5069039;28;20003;-74
2021/10/27 07:00:47;;;;;;;;;;;13.30;99.90;;;;;;5067265;28;19912;-73
2021/10/27 07:16:31;;;;;;;;;;;13.50;99.90;;;;;;5058439;28;19927;-74
2021/10/27 07:18:57;;;;;;;;;;;13.40;99.90;;;;;;5064341;28;19913;-73
2021/10/27 07:21:22;;;;;;;;;;;13.50;99.90;;;;;;5056684;28;20380;-73
2021/10/27 07:23:48;;;;;;;;;;;13.50;99.90;;;;;;5059951;28;20414;-73
2021/10/27 07:26:16;;;;;;;;;;;13.50;99.90;;;;;;5058496;28;19986;-73
2021/10/27 07:28:43;;;;;;;;;;;13.60;99.90;;;;;;5058693;28;20587;-73
2021/10/27 07:31:12;;;;;;;;;;;13.70;99.90;;;;;;5055419;28;19959;-74
2021/10/27 07:33:37;;;;;;;;;;;13.70;99.90;;;;;;5057937;28;20726;-74
2021/10/27 07:41:37;;;;;;;;;;;13.70;99.90;;;;;;5056412;28;20442;-74
2021/10/27 07:44:13;;;;;;;;;;;13.80;99.90;;;;;;5063943;28;20394;-73
2021/10/27 07:46:40;;;;;;;;;;;13.90;99.90;;;;;;5056873;28;20025;-74
2021/10/27 07:49:05;;;;;;;;;;;13.90;99.90;;;;;;5060346;28;19943;-74
2021/10/27 07:51:31;;;;;;;;;;;13.80;99.90;;;;;;5060261;28;19917;-74
2021/10/27 07:53:56;;;;;;;;;;;14.00;99.90;;;;;;5059007;28;19927;-73
2021/10/27 07:56:22;;;;;;;;;;;14.00;99.90;;;;;;5058469;28;19917;-73
2021/10/27 07:58:49;;;;;;;;;;;14.00;99.90;;;;;;5064102;28;20426;-74
2021/10/27 08:01:16;;;;;;;;;;;14.00;99.90;;;;;;5068017;28;19916;-74
2021/10/27 08:03:42;;;;;;;;;;;14.00;99.90;;;;;;5063471;28;19919;-73
2021/10/27 08:06:09;;;;;;;;;;;14.00;99.90;;;;;;5063159;28;20090;-73
2021/10/27 08:08:35;;;;;;;;;;;14.10;99.90;;;;;;5051290;28;20328;-73
2021/10/27 08:11:00;;;;;;;;;;;14.00;99.90;;;;;;5064204;28;19908;-74
2021/10/27 08:13:27;;;;;;;;;;;14.00;99.90;;;;;;5058927;28;19924;-74
2021/10/27 08:15:53;;;;;;;;;;;14.00;99.90;;;;;;5059274;28;19913;-74
2021/10/27 08:18:18;;;;;;;;;;;14.00;99.90;;;;;;5060670;28;20044;-73
2021/10/27 08:20:47;;;;;;;;;;;14.00;99.90;;;;;;5062799;28;19928;-73
2021/10/27 08:23:15;;;;;;;;;;;14.00;99.90;;;;;;5053357;28;20628;-73
2021/10/27 08:28:09;;;;;;;;;;;14.00;99.90;;;;;;5056603;28;19912;-73
2021/10/27 08:33:07;;;;;;;;;;;14.10;99.90;;;;;;5059764;28;19912;-74
2021/10/27 08:35:34;;;;;;;;;;;14.10;99.90;;;;;;5056818;28;20387;-73
2021/10/27 08:38:00;;;;;;;;;;;14.10;99.90;;;;;;5058965;28;19927;-73
2021/10/27 08:40:27;;;;;;;;;;;14.10;99.90;;;;;;5054862;28;19993;-74
2021/10/27 08:42:54;;;;;;;;;;;14.00;99.90;;;;;;5057821;28;20417;-74
2021/10/27 08:45:20;;;;;;;;;;;14.00;99.90;;;;;;5056292;28;20004;-78
2021/10/27 08:48:27;;;;;;;;;;;14.10;99.90;;;;;;5123904;27;19973;-75
2021/10/27 08:50:53;;;;;;;;;;;14.10;99.90;;;;;;5108487;27;19912;-76
2021/10/27 08:53:22;;;;;;;;;;;14.10;99.90;;;;;;5105498;28;19999;-76
2021/10/27 08:55:50;;;;;;;;;;;14.10;99.90;;;;;;5107181;28;20006;-76
2021/10/27 08:58:22;;;;;;;;;;;14.20;99.90;;;;;;5109961;28;19911;-75
2021/10/27 09:06:22;;;;;;;;;;;14.50;99.90;;;;;;5105715;28;19937;-76
2021/10/27 09:09:14;;;;;;;;;;;14.20;99.90;;;;;;5105960;28;19912;-75
2021/10/27 09:15:02;;;;;;;;;;;14.50;99.90;;;;;;5115959;28;19926;-75
2021/10/27 09:33:34;;;;;;;;;;;14.70;99.90;;;;;;5097384;28;19912;-76
2021/10/27 09:37:57;;;;;;;;;;;15.40;99.90;;;;;;5102295;27;19999;-74
2021/10/27 10:05:00;;;;;;;;;;;15.30;99.90;;;;;;5064702;28;19981;-75
2021/10/27 10:07:25;;;;;;;;;;;15.10;99.90;;;;;;5092596;28;19999;-76
2021/10/27 10:09:51;;;;;;;;;;;14.90;99.90;;;;;;5070031;28;19995;-75
2021/10/27 10:12:18;;;;;;;;;;;15.10;99.90;;;;;;5078044;28;19912;-75
2021/10/27 10:14:48;;;;;;;;;;;15.20;99.90;;;;;;5071438;28;20287;-76
2021/10/27 10:17:14;;;;;;;;;;;15.30;99.90;;;;;;5083738;28;20366;-76
2021/10/27 10:19:41;;;;;;;;;;;15.30;99.90;;;;;;5070059;28;19920;-75
2021/10/27 10:22:25;;;;;;;;;;;15.20;99.90;;;;;;5103878;27;19930;-77
2021/10/27 10:24:51;;;;;;;;;;;15.40;99.90;;;;;;5064629;28;19999;-76
2021/10/27 10:27:33;;;;;;;;;;;15.50;99.90;;;;;;5069628;28;20590;-76
2021/10/27 10:30:02;;;;;;;;;;;15.50;99.90;;;;;;5070922;28;19934;-76
2021/10/27 10:32:36;;;;;;;;;;;15.50;99.90;;;;;;5059171;28;20156;-76
2021/10/27 10:35:10;;;;;;;;;;;15.40;99.90;;;;;;5068671;28;19938;-75
2021/10/27 10:38:27;;;;;;;;;;;15.50;99.90;;;;;;5101550;28;19995;-76
2021/10/27 10:40:41;;;;;;;;;;;15.70;99.90;;;;;;5055065;28;19913;-76
2021/10/27 10:43:40;;;;;;;;;;;15.60;99.90;;;;;;5096443;27;19921;-76
2021/10/27 11:23:00;;;;;;;;;;;18.20;99.90;;;;;;5074058;28;19942;-77
2021/10/27 11:25:40;;;;;;;;;;;18.90;99.90;;;;;;5061192;28;19928;-76
2021/10/27 11:42:01;;;;;;;;;;;19.80;99.90;;;;;;5068924;28;19909;-75
2021/10/27 11:47:11;;;;;;;;;;;19.60;99.90;;;;;;5056518;28;20391;-75
2021/10/27 11:49:39;;;;;;;;;;;20.30;99.90;;;;;;5066352;28;19920;-76
2021/10/27 11:52:05;;;;;;;;;;;19.90;99.90;;;;;;5068833;28;19909;-76
2021/10/27 11:54:31;;;;;;;;;;;19.70;99.90;;;;;;5082479;28;20053;-76
2021/10/27 11:56:58;;;;;;;;;;;19.20;99.90;;;;;;5065355;28;19919;-76
2021/10/27 11:59:25;;;;;;;;;;;20.60;99.90;;;;;;5062311;28;19917;-76
2021/10/27 12:01:51;;;;;;;;;;;20.90;99.90;;;;;;5100598;27;19920;-76
2021/10/27 12:04:18;;;;;;;;;;;20.50;99.90;;;;;;5065616;28;20371;-77
2021/10/27 12:06:58;;;;;;;;;;;20.50;99.90;;;;;;5068247;28;20016;-77
2021/10/27 12:09:45;;;;;;;;;;;20.20;99.90;;;;;;5065211;28;20006;-77
2021/10/27 12:14:57;;;;;;;;;;;21.10;99.90;;;;;;5074174;28;19916;-76
2021/10/27 12:18:08;;;;;;;;;;;20.50;99.90;;;;;;5074219;28;19938;-76
2021/10/27 12:20:09;;;;;;;;;;;20.70;99.90;;;;;;5071768;28;20884;-76
2021/10/27 12:22:36;;;;;;;;;;;21.00;99.90;;;;;;5074056;28;20024;-76
2021/10/27 12:25:06;;;;;;;;;;;21.30;99.90;;;;;;5073303;28;19991;-76
2021/10/27 12:27:34;;;;;;;;;;;21.20;99.90;;;;;;5066584;28;20343;-76
2021/10/27 12:30:07;;;;;;;;;;;22.00;99.90;;;;;;5069521;28;19913;-76
2021/10/27 12:32:34;;;;;;;;;;;22.40;99.90;;;;;;5093107;28;20690;-76
2021/10/27 12:35:08;;;;;;;;;;;21.40;99.90;;;;;;5068249;28;19917;-77
2021/10/27 12:40:09;;;;;;;;;;;23.20;99.70;;;;;;5067898;28;19948;-76
2021/10/27 12:42:35;;;;;;;;;;;23.30;98.50;;;;;;5065068;28;19965;-76
2021/10/27 12:45:01;;;;;;;;;;;23.70;97.70;;;;;;5071147;28;20474;-76
2021/10/27 12:47:29;;;;;;;;;;;22.50;97.60;;;;;;5061801;28;20384;-76
2021/10/27 12:50:06;;;;;;;;;;;22.10;99.10;;;;;;5067307;28;20319;-76
2021/10/27 12:52:34;;;;;;;;;;;22.60;98.70;;;;;;5102115;28;19916;-77
2021/10/27 12:55:06;;;;;;;;;;;21.50;98.90;;;;;;5073633;28;19908;-76
2021/10/27 12:57:46;;;;;;;;;;;21.90;99.30;;;;;;5066271;28;20061;-76
2021/10/27 13:00:21;;;;;;;;;;;21.20;99.90;;;;;;5064030;28;19958;-76
2021/10/27 13:03:02;;;;;;;;;;;21.60;99.90;;;;;;5065973;28;20382;-76
2021/10/27 13:05:33;;;;;;;;;;;22.50;98.80;;;;;;5072862;28;19999;-76
2021/10/27 13:08:07;;;;;;;;;;;21.90;98.80;;;;;;5100114;28;19982;-76
2021/10/27 13:10:48;;;;;;;;;;;21.90;99.40;;;;;;5067874;28;20310;-77
2021/10/27 13:13:56;;;;;;;;;;;20.90;99.90;;;;;;5060212;28;19920;-74
2021/10/27 13:16:27;;;;;;;;;;;20.80;99.90;;;;;;5059192;28;19912;-75
2021/10/27 13:32:04;;;;;;;;;;;19.00;99.90;;;;;;5058865;28;19922;-76
2021/10/27 13:34:30;;;;;;;;;;;19.20;99.90;;;;;;5067754;28;20335;-76
2021/10/27 13:36:55;;;;;;;;;;;19.10;99.90;;;;;;5111773;27;19931;-76
2021/10/27 13:39:23;;;;;;;;;;;18.60;99.90;;;;;;5070969;28;19917;-77
2021/10/27 13:41:55;;;;;;;;;;;18.60;99.90;;;;;;5110928;27;20304;-75
2021/10/27 13:44:23;;;;;;;;;;;18.60;99.90;;;;;;5106405;27;19924;-76
2021/10/27 13:47:02;;;;;;;;;;;18.70;99.90;;;;;;5075974;28;20371;-76
2021/10/27 13:58:20;;;;;;;;;;;18.50;99.90;;;;;;5047790;28;20387;-76
2021/10/27 14:06:19;;;;;;;;;;;18.00;99.90;;;;;;5065302;28;19928;-76
2021/10/27 14:08:52;;;;;;;;;;;18.10;99.90;;;;;;5105438;27;19940;-75
2021/10/27 14:13:58;;;;;;;;;;;18.20;99.90;;;;;;5070535;28;20416;-75
2021/10/27 15:22:04;;;;;;;;;;;16.30;99.90;;;;;;5069244;28;19974;-76
2021/10/27 15:30:05;;;;;;;;;;;16.10;99.90;;;;;;5071893;28;19919;-75
2021/10/27 15:43:30;;;;;;;;;;;15.70;99.90;;;;;;5069786;28;19927;-75
2021/10/27 15:51:26;;;;;;;;;;;15.40;99.90;;;;;;5076760;28;20279;-74
2021/10/27 15:53:56;;;;;;;;;;;15.30;99.90;;;;;;5073170;28;19912;-75
2021/10/27 15:56:22;;;;;;;;;;;15.20;99.90;;;;;;5065871;28;20434;-75
2021/10/27 15:58:47;;;;;;;;;;;15.10;99.90;;;;;;5070286;28;20213;-74
2021/10/27 16:01:13;;;;;;;;;;;14.90;99.90;;;;;;5101036;27;19920;-74
2021/10/27 16:03:39;;;;;;;;;;;14.90;99.90;;;;;;5068951;28;19920;-74
2021/10/27 16:06:06;;;;;;;;;;;14.80;99.90;;;;;;5066502;28;20027;-75
2021/10/27 16:08:33;;;;;;;;;;;14.80;99.90;;;;;;5064778;28;19916;-74
2021/10/27 16:10:59;;;;;;;;;;;14.70;99.90;;;;;;5060170;28;20043;-75
2021/10/27 16:13:25;;;;;;;;;;;14.70;99.90;;;;;;5063042;28;19995;-74
2021/10/27 16:18:23;;;;;;;;;;;14.50;99.90;;;;;;5064774;28;19916;-73
2021/10/27 16:20:49;;;;;;;;;;;14.30;99.90;;;;;;5072959;28;19917;-75
2021/10/27 16:23:15;;;;;;;;;;;14.20;99.90;;;;;;5073071;28;19993;-75
2021/10/27 16:25:41;;;;;;;;;;;14.10;99.90;;;;;;5066482;28;19917;-75
2021/10/27 16:28:07;;;;;;;;;;;14.00;99.90;;;;;;5071580;28;19921;-75
2021/10/27 16:30:33;;;;;;;;;;;13.90;99.90;;;;;;5064962;28;20014;-74
2021/10/27 16:32:58;;;;;;;;;;;13.80;99.90;;;;;;5063993;28;19965;-74
2021/10/27 16:35:24;;;;;;;;;;;13.70;99.90;;;;;;5064378;28;19909;-74
2021/10/27 16:37:50;;;;;;;;;;;13.70;99.90;;;;;;5065342;28;19952;-74
2021/10/27 16:40:15;;;;;;;;;;;13.60;99.90;;;;;;5065922;28;20000;-74
2021/10/27 16:42:41;;;;;;;;;;;13.60;99.90;;;;;;5060342;28;19917;-75
2021/10/27 16:45:08;;;;;;;;;;;13.70;99.90;;;;;;5065619;28;19913;-74
2021/10/27 16:47:34;;;;;;;;;;;13.40;99.90;;;;;;5059104;28;19931;-75
2021/10/27 16:50:00;;;;;;;;;;;13.30;99.90;;;;;;5058472;28;19917;-75
2021/10/27 16:52:25;;;;;;;;;;;13.20;99.90;;;;;;5092563;28;19935;-74
2021/10/27 16:54:51;;;;;;;;;;;13.10;99.90;;;;;;5063819;28;19974;-75
2021/10/27 16:57:17;;;;;;;;;;;13.30;99.90;;;;;;5067093;28;19924;-74
2021/10/27 16:59:42;;;;;;;;;;;13.20;99.90;;;;;;5099226;28;19923;-74
2021/10/27 17:02:08;;;;;;;;;;;13.10;99.90;;;;;;5073190;28;20371;-75
2021/10/27 17:04:34;;;;;;;;;;;13.00;99.90;;;;;;5072818;28;20360;-75
2021/10/27 17:07:00;;;;;;;;;;;12.90;99.90;;;;;;5069607;28;19920;-74
2021/10/27 17:09:27;;;;;;;;;;;13.00;99.90;;;;;;5063690;28;19917;-73
2021/10/27 17:11:53;;;;;;;;;;;13.00;99.90;;;;;;5073313;28;19912;-74
2021/10/27 17:14:19;;;;;;;;;;;12.90;99.90;;;;;;5083095;28;19975;-75
2021/10/27 17:16:44;;;;;;;;;;;12.90;99.90;;;;;;5070414;28;21173;-74
2021/10/27 17:19:10;;;;;;;;;;;12.80;99.90;;;;;;5086154;28;20269;-75
2021/10/27 17:21:37;;;;;;;;;;;12.70;99.90;;;;;;5074836;28;19987;-75
2021/10/27 17:24:03;;;;;;;;;;;12.60;99.90;;;;;;5079225;28;20283;-73
2021/10/27 17:26:28;;;;;;;;;;;12.60;99.90;;;;;;5083566;28;19999;-74
2021/10/27 17:28:54;;;;;;;;;;;12.70;99.90;;;;;;5074361;28;19999;-74
2021/10/27 17:31:20;;;;;;;;;;;12.70;99.90;;;;;;5074223;28;20490;-74
2021/10/27 17:33:46;;;;;;;;;;;12.70;99.90;;;;;;5079220;28;19912;-74
2021/10/27 17:36:12;;;;;;;;;;;12.80;99.90;;;;;;5106340;27;20014;-75
2021/10/27 17:38:38;;;;;;;;;;;12.90;99.90;;;;;;5070392;28;20346;-74
2021/10/27 17:41:04;;;;;;;;;;;12.80;99.90;;;;;;5064366;28;19925;-75
2021/10/27 17:43:31;;;;;;;;;;;12.70;99.90;;;;;;5065619;28;20565;-74
2021/10/27 17:45:56;;;;;;;;;;;12.60;99.90;;;;;;5073994;28;20378;-74
2021/10/27 17:48:28;;;;;;;;;;;12.60;99.90;;;;;;5075782;28;19930;-73
2021/10/27 17:58:38;;;;;;;;;;;12.50;99.90;;;;;;5065284;28;19964;-77
2021/10/27 18:01:04;;;;;;;;;;;12.50;99.90;;;;;;5107536;27;19916;-74
2021/10/27 18:03:31;;;;;;;;;;;12.50;99.90;;;;;;5101236;27;20346;-75
2021/10/27 18:05:57;;;;;;;;;;;12.70;99.90;;;;;;5062799;28;19912;-74
2021/10/27 18:08:24;;;;;;;;;;;12.80;99.90;;;;;;5069032;28;19923;-75
2021/10/27 18:10:53;;;;;;;;;;;12.70;99.90;;;;;;5103409;27;20375;-73
2021/10/27 18:13:24;;;;;;;;;;;12.70;99.90;;;;;;5070404;28;19917;-74
2021/10/27 18:15:52;;;;;;;;;;;12.60;99.90;;;;;;5069177;28;20035;-73
2021/10/27 18:18:22;;;;;;;;;;;12.70;99.90;;;;;;5071356;28;19917;-75
2021/10/27 18:20:48;;;;;;;;;;;12.80;99.90;;;;;;5068424;28;19916;-75
2021/10/27 18:39:34;;;;;;;;;;;12.70;99.90;;;;;;5068299;28;19922;-77
2021/10/27 18:42:04;;;;;;;;;;;12.60;99.90;;;;;;5063484;28;19921;-75
2021/10/27 18:44:30;;;;;;;;;;;12.60;99.90;;;;;;5095890;28;19916;-74
2021/10/27 18:46:55;;;;;;;;;;;12.50;99.90;;;;;;5066511;28;19985;-74
2021/10/27 18:49:21;;;;;;;;;;;12.40;99.90;;;;;;5061889;28;19961;-75
2021/10/27 18:52:02;;;;;;;;;;;12.40;99.90;;;;;;5068130;28;19942;-74
2021/10/27 18:57:16;;;;;;;;;;;12.50;99.90;;;;;;5071802;28;20005;-74
2021/10/27 18:59:48;;;;;;;;;;;12.40;99.90;;;;;;5070055;28;19915;-74
2021/10/27 19:02:20;;;;;;;;;;;12.40;99.90;;;;;;5073192;28;19955;-75
2021/10/27 19:10:40;;;;;;;;;;;12.00;99.90;;;;;;5064828;28;20051;-74
2021/10/27 19:15:41;;;;;;;;;;;11.40;99.90;;;;;;5074288;28;20347;-74
2021/10/27 19:18:07;;;;;;;;;;;11.40;99.90;;;;;;5065207;28;19959;-74
2021/10/27 19:20:33;;;;;;;;;;;11.40;99.90;;;;;;5062858;28;19920;-74
2021/10/27 19:22:58;;;;;;;;;;;11.40;99.90;;;;;;5066741;28;19958;-74
2021/10/27 19:25:30;;;;;;;;;;;11.40;99.90;;;;;;5064929;28;20003;-73
2021/10/27 19:30:47;;;;;;;;;;;11.00;99.90;;;;;;5071051;28;19916;-74
2021/10/27 20:08:39;;;;;;;;;;;10.50;99.90;;;;;;5071148;28;19946;-73
2021/10/27 20:30:15;;;;;;;;;;;10.10;99.90;;;;;;5071423;28;19931;-74
2021/10/27 20:49:36;;;;;;;;;;;9.80;99.90;;;;;;5059958;28;20298;-74
2021/10/27 20:52:06;;;;;;;;;;;9.60;99.90;;;;;;5086774;28;19916;-74
2021/10/27 20:54:33;;;;;;;;;;;9.30;99.90;;;;;;5085893;28;19962;-73
2021/10/27 20:57:02;;;;;;;;;;;9.20;99.90;;;;;;5084871;28;19912;-74
2021/10/27 20:59:36;;;;;;;;;;;9.10;99.90;;;;;;5085756;28;19919;-74
2021/10/27 21:12:07;;;;;;;;;;;8.90;99.90;;;;;;5086138;28;20372;-74
2021/10/27 21:12:55;;;;;;;;;;;8.90;99.90;;;;;;5083966;28;19947;-74
2021/10/27 21:15:21;;;;;;;;;;;8.80;99.90;;;;;;5065871;28;20284;-74
2021/10/27 21:17:47;;;;;;;;;;;8.80;99.90;;;;;;5082216;28;20295;-74
2021/10/27 21:20:12;;;;;;;;;;;9.00;99.90;;;;;;5084348;28;20259;-75
2021/10/27 21:22:38;;;;;;;;;;;9.20;99.90;;;;;;5084026;28;20016;-74
2021/10/27 21:25:05;;;;;;;;;;;8.90;99.90;;;;;;5090686;28;20758;-74
2021/10/27 21:42:26;;;;;;;;;;;8.90;99.90;;;;;;5088388;28;19927;-74
2021/10/27 21:43:56;;;;;;;;;;;9.00;99.90;;;;;;5084033;28;20331;-74
2021/10/27 21:46:21;;;;;;;;;;;9.00;99.90;;;;;;5102826;28;20295;-75
2021/10/27 21:48:47;;;;;;;;;;;8.90;99.90;;;;;;5082795;28;20284;-74
2021/10/27 21:51:14;;;;;;;;;;;8.80;99.90;;;;;;5102981;28;20341;-74
2021/10/27 21:53:39;;;;;;;;;;;9.00;99.90;;;;;;5086625;28;20343;-74
2021/10/27 21:56:07;;;;;;;;;;;9.00;99.90;;;;;;5082237;28;19923;-74
2021/10/27 21:58:32;;;;;;;;;;;9.10;99.90;;;;;;5087072;28;20035;-75
2021/10/27 22:00:59;;;;;;;;;;;9.10;99.90;;;;;;5081181;28;20030;-73
2021/10/27 22:03:26;;;;;;;;;;;9.10;99.90;;;;;;5088084;28;19926;-75
2021/10/27 22:05:52;;;;;;;;;;;8.90;99.90;;;;;;5105622;27;19916;-76
2021/10/27 22:08:18;;;;;;;;;;;8.90;99.90;;;;;;5074608;28;19920;-75
2021/10/27 22:10:43;;;;;;;;;;;9.20;99.90;;;;;;5090640;28;19911;-74
2021/10/27 22:13:09;;;;;;;;;;;9.00;99.90;;;;;;5086759;28;19927;-75
2021/10/27 22:15:35;;;;;;;;;;;9.00;99.90;;;;;;5105396;27;20271;-75
2021/10/27 22:18:00;;;;;;;;;;;8.90;99.90;;;;;;5091093;28;19915;-75
2021/10/27 22:20:26;;;;;;;;;;;8.70;99.90;;;;;;5089546;28;19927;-75
2021/10/27 22:22:52;;;;;;;;;;;8.70;99.90;;;;;;5087321;28;20371;-73
2021/10/27 22:25:18;;;;;;;;;;;8.90;99.90;;;;;;5086187;28;20352;-74
2021/10/27 22:27:44;;;;;;;;;;;8.70;99.90;;;;;;5069143;28;19951;-74
2021/10/27 22:30:09;;;;;;;;;;;8.80;99.90;;;;;;5089369;28;19920;-75
2021/10/27 22:32:35;;;;;;;;;;;8.80;99.90;;;;;;5092718;28;20007;-74
2021/10/27 22:35:01;;;;;;;;;;;9.10;99.90;;;;;;5087771;28;19912;-74
2021/10/27 22:37:27;;;;;;;;;;;9.50;99.90;;;;;;5089720;28;19912;-73
2021/10/27 22:39:52;;;;;;;;;;;9.70;99.90;;;;;;5102095;28;19916;-74
2021/10/27 22:42:18;;;;;;;;;;;9.60;99.90;;;;;;5088415;28;20426;-75
2021/10/27 22:44:44;;;;;;;;;;;9.50;99.90;;;;;;5086467;28;19916;-74
2021/10/27 22:47:13;;;;;;;;;;;9.30;99.90;;;;;;5092983;28;19928;-74
2021/10/27 22:49:41;;;;;;;;;;;9.20;99.90;;;;;;5090071;28;19916;-75
2021/10/27 22:52:08;;;;;;;;;;;9.00;99.90;;;;;;5090444;28;19987;-74
2021/10/27 22:54:33;;;;;;;;;;;8.90;99.90;;;;;;5087996;28;19919;-74
2021/10/27 22:56:59;;;;;;;;;;;9.20;99.90;;;;;;5071501;28;19920;-74
2021/10/27 23:00:02;;;;;;;;;;;9.40;99.90;;;;;;5091159;28;19912;-74
2021/10/27 23:07:14;;;;;;;;;;;9.20;99.90;;;;;;5091236;28;19924;-74
2021/10/27 23:09:47;;;;;;;;;;;9.30;99.90;;;;;;5083341;28;19947;-73
2021/10/27 23:43:03;;;;;;;;;;;9.70;99.90;;;;;;5091548;28;20012;-74
2021/10/27 23:47:24;;;;;;;;;;;9.80;99.90;;;;;;5084810;28;19920;-76
2021/10/27 23:50:00;;;;;;;;;;;9.80;99.90;;;;;;5095116;28;19947;-74
2021/10/27 23:52:30;;;;;;;;;;;9.80;99.90;;;;;;5089796;28;19919;-75
2021/10/27 23:55:10;;;;;;;;;;;9.80;99.90;;;;;;5086179;28;19916;-75
